.
WxDataArchive / Data Records for 2008-11-08
2008-11-07 November 2008 2008-11-09

Data Records for Saturday, 08 November 2008

Time	Temp	Chill	HIndex	Humid	Dewpt	 Wind 	HiWind	WindDir	Rain 	Barom 
-----	----	-----	------	-----	-----	------	------	-------	-----	----- 
00:00	41.9	41.9	41.9	58	28.2	2	7	248	0.00	29.657 
00:05	41.9	41.9	41.9	58	28.2	3	10	248	0.00	29.653 
00:10	41.9	41.9	41.9	58	28.2	2	7	248	0.00	29.653 
00:15	41.8	41.8	41.8	59	28.5	2	7	248	0.00	29.650 
00:20	41.6	41.6	41.6	59	28.3	2	5	248	0.00	29.649 
00:25	41.5	41.5	41.5	60	28.7	2	4	248	0.00	29.649 
00:30	41.6	41.6	41.6	60	28.8	2	6	248	0.00	29.648 
00:35	41.6	41.6	41.6	59	28.3	2	5	248	0.00	29.643 
00:40	41.8	41.8	41.8	59	28.5	1	5	248	0.00	29.641 
00:45	41.8	41.8	41.8	60	28.9	1	3	248	0.00	29.641 
00:50	41.8	41.8	41.8	60	28.9	1	4	225	0.00	29.641 
00:55	41.8	41.8	41.8	60	28.9	2	5	225	0.00	29.640 
01:00	41.9	41.9	41.9	60	29.0	1	6	248	0.00	29.640 
01:05	41.9	41.9	41.9	60	29.0	2	7	248	0.00	29.639 
01:10	41.9	41.9	41.9	59	28.6	3	11	248	0.00	29.639 
01:15	42.1	42.1	42.1	60	29.2	2	7	248	0.00	29.636 
01:20	42.1	42.1	42.1	60	29.2	3	6	270	0.00	29.634 
01:25	42.1	42.1	42.1	59	28.8	2	6	225	0.00	29.632 
01:30	42.1	42.1	42.1	60	29.2	2	7	248	0.00	29.629 
01:35	42.1	42.1	42.1	59	28.8	2	9	248	0.00	29.628 
01:40	42.2	42.2	42.2	59	28.9	2	11	248	0.00	29.628 
01:45	42.2	42.2	42.2	59	28.9	2	5	248	0.00	29.627 
01:50	42.2	42.2	42.2	59	28.9	1	4	248	0.00	29.625 
01:55	42.2	42.2	42.2	60	29.3	2	4	248	0.00	29.625 
02:00	42.2	42.2	42.2	59	28.9	2	10	248	0.00	29.625 
02:05	42.2	42.2	42.2	59	28.9	2	5	248	0.00	29.622 
02:10	42.2	42.2	42.2	59	28.9	2	5	248	0.00	29.620 
02:15	42.2	42.2	42.2	60	29.3	1	5	248	0.00	29.616 
02:20	42.2	42.2	42.2	60	29.3	2	5	248	0.00	29.616 
02:25	42.1	42.1	42.1	60	29.2	1	3	248	0.00	29.614 
02:30	42.1	42.1	42.1	59	28.8	2	7	248	0.00	29.612 
02:35	42.1	42.1	42.1	60	29.2	2	6	248	0.00	29.609 
02:40	42.2	42.2	42.2	59	28.9	2	6	248	0.00	29.610 
02:45	42.2	42.2	42.2	59	28.9	2	6	248	0.00	29.608 
02:50	42.2	42.2	42.2	59	28.9	2	6	248	0.00	29.608 
02:55	42.1	42.1	42.1	60	29.2	2	6	248	0.00	29.608 
03:00	42.1	42.1	42.1	60	29.2	2	6	248	0.00	29.608 
03:05	42.1	42.1	42.1	60	29.2	3	7	248	0.00	29.610 
03:10	42.1	42.1	42.1	60	29.2	1	5	248	0.00	29.610 
03:15	42.1	42.1	42.1	60	29.2	3	12	248	0.00	29.608 
03:20	42.1	42.1	42.1	60	29.2	2	6	248	0.00	29.608 
03:25	41.9	41.9	41.9	61	29.4	1	4	248	0.00	29.608 
03:30	41.9	41.9	41.9	61	29.4	1	4	248	0.00	29.605 
03:35	41.9	41.9	41.9	61	29.4	2	7	248	0.00	29.602 
03:40	41.8	41.8	41.8	61	29.4	2	5	248	0.00	29.598 
03:45	41.8	41.8	41.8	62	29.7	1	5	248	0.00	29.594 
03:50	41.6	41.6	41.6	61	29.2	2	6	248	0.00	29.593 
03:55	41.6	41.6	41.6	62	29.6	1	4	248	0.00	29.592 
04:00	41.6	41.6	41.6	62	29.6	2	6	248	0.00	29.591 
04:05	41.5	41.5	41.5	62	29.5	1	5	248	0.00	29.593 
04:10	41.5	41.5	41.5	62	29.5	2	7	225	0.00	29.593 
04:15	41.5	41.5	41.5	63	29.9	1	3	248	0.00	29.591 
04:20	41.5	41.5	41.5	63	29.9	1	6	248	0.00	29.589 
04:25	41.3	41.3	41.3	63	29.7	1	5	248	0.00	29.590 
04:30	41.3	41.3	41.3	63	29.7	1	5	248	0.00	29.590 
04:35	41.5	41.5	41.5	63	29.9	1	5	248	0.00	29.589 
04:40	41.5	41.5	41.5	63	29.9	2	5	248	0.00	29.590 
04:45	41.5	41.5	41.5	63	29.9	1	6	248	0.00	29.588 
04:50	41.5	41.5	41.5	63	29.9	1	8	248	0.00	29.588 
04:55	41.6	41.6	41.6	62	29.6	2	6	248	0.00	29.585 
05:00	41.6	41.6	41.6	63	30.0	1	4	225	0.00	29.584 
05:05	41.6	41.6	41.6	62	29.6	2	6	248	0.00	29.587 
05:10	41.8	41.8	41.8	62	29.7	2	5	248	0.00	29.588 
05:15	41.8	41.8	41.8	62	29.7	3	8	248	0.00	29.586 
05:20	41.9	41.9	41.9	62	29.8	3	11	270	0.00	29.586 
05:25	41.9	41.9	41.9	62	29.8	2	7	248	0.00	29.585 
05:30	41.9	41.9	41.9	62	29.8	2	7	248	0.00	29.584 
05:35	41.9	41.9	41.9	62	29.8	2	7	248	0.00	29.584 
05:40	41.9	41.9	41.9	62	29.8	3	9	248	0.00	29.582 
05:45	41.9	41.9	41.9	62	29.8	2	7	248	0.00	29.582 
05:50	41.9	41.9	41.9	62	29.8	2	6	248	0.00	29.581 
05:55	41.9	41.9	41.9	62	29.8	3	9	270	0.00	29.580 
06:00	41.9	41.9	41.9	62	29.8	3	7	248	0.00	29.579 
06:05	41.9	41.9	41.9	63	30.2	2	7	248	0.00	29.580 
06:10	41.9	41.9	41.9	62	29.8	3	11	248	0.00	29.583 
06:15	41.9	41.9	41.9	63	30.2	3	10	248	0.00	29.580 
06:20	41.9	41.9	41.9	63	30.2	3	8	248	0.00	29.580 
06:25	42.1	42.1	42.1	63	30.4	3	10	248	0.00	29.580 
06:30	42.1	42.1	42.1	63	30.4	3	10	270	0.00	29.578 
06:35	42.1	42.1	42.1	63	30.4	3	6	248	0.00	29.579 
06:40	42.1	42.1	42.1	64	30.8	2	5	248	0.00	29.583 
06:45	42.1	42.1	42.1	64	30.8	2	9	248	0.00	29.585 
06:50	42.1	42.1	42.1	65	31.2	3	9	248	0.00	29.588 
06:55	41.9	39.5	41.9	67	31.8	4	10	248	0.00	29.590 
07:00	41.8	38.6	41.8	68	32.0	5	10	270	0.00	29.591 
07:05	41.6	39.2	41.6	69	32.2	4	10	248	0.00	29.594 
07:10	41.3	38.8	41.3	70	32.3	4	14	248	0.00	29.595 
07:15	40.9	37.5	40.9	70	31.9	5	14	270	0.00	29.598 
07:20	40.8	40.8	40.8	69	31.4	3	7	270	0.00	29.601 
07:25	40.6	37.2	40.6	69	31.2	5	11	270	0.00	29.603 
07:30	40.5	37.9	40.5	69	31.1	4	14	248	0.00	29.604 
07:35	40.5	37.9	40.5	69	31.1	4	10	248	0.00	29.608 
07:40	40.3	37.7	40.3	69	31.0	4	11	270	0.00	29.609 
07:45	40.2	36.7	40.2	69	30.9	5	13	270	0.00	29.612 
07:50	40.1	37.4	40.1	70	31.1	4	10	270	0.00	29.614 
07:55	39.9	37.2	39.9	70	30.9	4	9	270	0.00	29.617 
08:00	39.6	36.0	39.6	70	30.6	5	14	270	0.00	29.622 
08:05	39.3	36.5	39.3	71	30.7	4	12	270	0.00	29.619 
08:10	39.2	36.4	39.2	71	30.6	4	10	270	0.00	29.620 
08:15	38.9	35.2	38.9	71	30.3	5	10	248	0.00	29.621 
08:20	38.8	38.8	38.8	71	30.2	3	10	248	0.00	29.624 
08:25	38.6	35.7	38.6	71	30.0	4	10	248	0.00	29.625 
08:30	38.5	38.5	38.5	71	29.9	3	7	248	0.00	29.622 
08:35	38.5	38.5	38.5	71	29.9	3	10	248	0.00	29.622 
08:40	38.3	38.3	38.3	70	29.4	3	9	248	0.00	29.623 
08:45	38.3	38.3	38.3	70	29.4	3	7	248	0.00	29.625 
08:50	38.3	38.3	38.3	69	29.0	3	9	248	0.00	29.626 
08:55	38.2	35.2	38.2	69	28.9	4	9	270	0.00	29.627 
09:00	38.3	35.4	38.3	69	29.0	4	6	270	0.00	29.626 
09:05	38.5	38.5	38.5	70	29.6	3	10	270	0.00	29.626 
09:10	38.5	38.5	38.5	70	29.6	2	5	270	0.00	29.624 
09:15	38.8	38.8	38.8	71	30.2	2	5	248	0.00	29.625 
09:20	38.8	38.8	38.8	71	30.2	3	7	270	0.00	29.626 
09:25	38.8	38.8	38.8	71	30.2	2	6	270	0.00	29.625 
09:30	39.1	39.1	39.1	70	30.2	3	7	248	0.00	29.623 
09:35	39.1	36.3	39.1	68	29.4	4	13	270	0.00	29.622 
09:40	39.1	39.1	39.1	68	29.4	3	9	270	0.00	29.620 
09:45	39.3	35.7	39.3	67	29.3	5	14	270	0.00	29.622 
09:50	39.3	35.7	39.3	66	28.9	5	16	270	0.00	29.624 
09:55	39.2	39.2	39.2	66	28.8	3	10	270	0.00	29.625 
10:00	39.1	39.1	39.1	66	28.7	3	10	270	0.00	29.626 
10:05	38.9	36.0	38.9	65	28.2	4	12	270	0.00	29.627 
10:10	38.9	36.0	38.9	66	28.5	4	7	270	0.00	29.627 
10:15	38.8	38.8	38.8	65	28.1	3	6	270	0.00	29.627 
10:20	38.8	38.8	38.8	65	28.1	3	11	270	0.00	29.626 
10:25	38.6	38.6	38.6	66	28.2	3	11	248	0.00	29.627 
10:30	38.8	38.8	38.8	67	28.8	3	11	248	0.00	29.628 
10:35	38.6	34.8	38.6	65	27.9	5	10	270	0.00	29.629 
10:40	38.6	35.7	38.6	65	27.9	4	12	248	0.00	29.628 
10:45	38.6	34.8	38.6	65	27.9	5	14	248	0.00	29.629 
10:50	38.9	36.0	38.9	65	28.2	4	12	248	0.00	29.629 
10:55	39.1	39.1	39.1	64	28.0	3	7	248	0.00	29.628 
11:00	39.1	35.4	39.1	64	28.0	5	14	270	0.00	29.628 
11:05	39.2	36.4	39.2	63	27.7	4	13	248	0.00	29.630 
11:10	39.2	36.4	39.2	63	27.7	4	12	248	0.00	29.631 
11:15	39.3	39.3	39.3	64	28.2	3	7	248	0.00	29.629 
11:20	39.3	35.7	39.3	62	27.4	5	12	270	0.00	29.630 
11:25	39.3	36.5	39.3	63	27.8	4	7	270	0.00	29.629 
11:30	39.5	36.7	39.5	62	27.6	4	11	248	0.00	29.627 
11:35	39.3	35.7	39.3	62	27.4	5	14	270	0.00	29.628 
11:40	39.5	39.5	39.5	63	28.0	3	7	248	0.00	29.627 
11:45	39.5	35.9	39.5	62	27.6	5	15	248	0.00	29.627 
11:50	39.6	36.0	39.6	61	27.3	5	13	270	0.00	29.627 
11:55	39.6	36.9	39.6	62	27.7	4	15	248	0.00	29.626 
12:00	39.6	39.6	39.6	62	27.7	3	10	248	0.00	29.626 
12:05	39.8	37.1	39.8	61	27.5	4	10	270	0.00	29.626 
12:10	39.8	39.8	39.8	62	27.9	3	10	270	0.00	29.625 
12:15	39.8	39.8	39.8	63	28.2	3	7	248	0.00	29.626 
12:20	39.8	39.8	39.8	64	28.6	3	7	248	0.00	29.624 
12:25	39.9	39.9	39.9	64	28.7	3	6	248	0.00	29.623 
12:30	39.8	37.1	39.8	64	28.6	4	11	270	0.00	29.625 
12:35	39.8	37.1	39.8	65	29.0	4	10	270	0.00	29.622 
12:40	39.9	37.2	39.9	65	29.1	4	11	248	0.00	29.621 
12:45	40.2	37.5	40.2	65	29.4	4	12	248	0.00	29.614 
12:50	40.3	37.7	40.3	64	29.1	4	11	248	0.00	29.618 
12:55	40.5	37.1	40.5	64	29.3	5	12	248	0.00	29.620 
13:00	40.5	37.9	40.5	64	29.3	4	11	270	0.00	29.619 
13:05	40.8	40.8	40.8	64	29.6	2	9	248	0.00	29.623 
13:10	41.1	41.1	41.1	62	29.1	3	10	248	0.00	29.621 
13:15	40.9	38.4	40.9	61	28.5	4	13	270	0.00	29.620 
13:20	41.1	38.6	41.1	62	29.1	4	11	248	0.00	29.621 
13:25	40.9	37.5	40.9	60	28.1	5	10	270	0.00	29.617 
13:30	40.9	40.9	40.9	61	28.5	3	7	248	0.00	29.619 
13:35	41.1	38.6	41.1	60	28.3	4	11	248	0.00	29.618 
13:40	41.2	41.2	41.2	60	28.4	3	11	248	0.00	29.618 
13:45	41.3	38.8	41.3	59	28.1	4	10	270	0.00	29.615 
13:50	41.5	39.1	41.5	59	28.3	4	12	248	0.00	29.620 
13:55	41.3	38.0	41.3	59	28.1	5	11	270	0.00	29.617 
14:00	41.2	38.7	41.2	59	28.0	4	11	248	0.00	29.616 
14:05	41.3	41.3	41.3	59	28.1	3	9	248	0.00	29.618 
14:10	41.3	38.0	41.3	58	27.7	5	14	248	0.00	29.619 
14:15	41.3	38.8	41.3	59	28.1	4	7	248	0.00	29.619 
14:20	41.5	41.5	41.5	59	28.3	3	6	248	0.00	29.616 
14:25	41.5	41.5	41.5	59	28.3	3	7	248	0.00	29.616 
14:30	41.6	41.6	41.6	59	28.3	3	9	248	0.00	29.616 
14:35	41.5	39.1	41.5	58	27.8	4	12	248	0.00	29.621 
14:40	41.3	38.0	41.3	58	27.7	5	17	270	0.00	29.626 
14:45	41.1	37.8	41.1	59	27.9	5	12	270	0.00	29.626 
14:50	41.1	41.1	41.1	60	28.3	2	6	248	0.00	29.627 
14:55	41.1	41.1	41.1	60	28.3	3	9	270	0.00	29.627 
15:00	41.1	37.8	41.1	60	28.3	5	15	248	0.00	29.628 
15:05	40.9	38.4	40.9	60	28.1	4	10	248	0.00	29.629 
15:10	40.9	38.4	40.9	61	28.5	4	12	270	0.00	29.629 
15:15	40.9	37.5	40.9	60	28.1	5	14	270	0.00	29.629 
15:20	40.9	38.4	40.9	61	28.5	4	11	248	0.00	29.628 
15:25	40.8	37.4	40.8	61	28.4	5	14	248	0.00	29.629 
15:30	40.8	38.2	40.8	62	28.8	4	11	248	0.00	29.630 
15:35	40.8	38.2	40.8	62	28.8	4	11	270	0.00	29.630 
15:40	40.8	40.8	40.8	62	28.8	3	7	248	0.00	29.633 
15:45	40.8	40.8	40.8	62	28.8	3	9	248	0.00	29.640 
15:50	40.8	40.8	40.8	63	29.2	3	10	248	0.00	29.642 
15:55	40.6	38.0	40.6	64	29.4	4	12	270	0.00	29.644 
16:00	40.3	40.3	40.3	65	29.5	3	7	248	0.00	29.645 
16:05	40.3	36.8	40.3	66	29.9	5	10	270	0.00	29.647 
16:10	40.2	37.5	40.2	66	29.8	4	11	248	0.00	29.648 
16:15	40.2	40.2	40.2	66	29.8	3	10	248	0.00	29.648 
16:20	40.2	40.2	40.2	67	30.1	3	8	248	0.00	29.649 
16:25	40.2	37.5	40.2	68	30.5	4	9	248	0.00	29.651 
16:30	39.9	37.2	39.9	71	31.3	4	12	270	0.00	29.654 
16:35	39.5	39.5	39.5	75	32.2	3	7	248	0.00	29.656 
16:40	38.9	36.0	38.9	78	32.6	4	12	248	0.00	29.659 
16:45	38.6	35.7	38.6	80	33.0	4	12	270	0.00	29.660 
16:50	38.3	38.3	38.3	81	33.0	3	11	248	0.00	29.660 
16:55	38.2	38.2	38.2	82	33.2	3	9	248	0.00	29.661 
17:00	38.0	35.0	38.0	84	33.6	4	12	248	0.00	29.663 
17:05	37.9	34.9	37.9	84	33.5	4	10	248	0.00	29.662 
17:10	37.8	34.8	37.8	85	33.7	4	11	248	0.00	29.662 
17:15	37.8	34.8	37.8	85	33.7	4	11	248	0.00	29.666 
17:20	37.8	37.8	37.8	85	33.7	3	10	248	0.00	29.667 
17:25	37.8	33.9	37.8	85	33.7	5	11	248	0.00	29.670 
17:30	37.8	34.8	37.8	86	34.0	4	13	248	0.00	29.672 
17:35	37.8	34.8	37.8	85	33.7	4	10	248	0.00	29.673 
17:40	37.8	34.8	37.8	85	33.7	4	12	248	0.00	29.673 
17:45	37.8	37.8	37.8	85	33.7	2	6	248	0.00	29.675 
17:50	37.9	34.9	37.9	85	33.8	4	11	270	0.00	29.676 
17:55	37.9	34.9	37.9	85	33.8	4	11	248	0.00	29.676 
18:00	37.8	34.8	37.8	85	33.7	4	9	248	0.00	29.677 
18:05	37.8	34.8	37.8	85	33.7	4	10	248	0.00	29.679 
18:10	37.8	37.8	37.8	85	33.7	3	9	248	0.00	29.678 
18:15	37.8	33.9	37.8	85	33.7	5	10	248	0.00	29.680 
18:20	37.8	34.8	37.8	85	33.7	4	10	248	0.00	29.684 
18:25	37.8	34.8	37.8	84	33.4	4	11	270	0.00	29.687 
18:30	37.8	34.8	37.8	84	33.4	4	13	248	0.00	29.686 
18:35	37.8	33.9	37.8	83	33.1	5	12	270	0.00	29.686 
18:40	37.9	34.9	37.9	83	33.2	4	9	248	0.00	29.690 
18:45	37.9	34.9	37.9	83	33.2	4	12	270	0.00	29.691 
18:50	37.9	34.0	37.9	83	33.2	5	13	270	0.00	29.692 
18:55	37.9	34.0	37.9	82	32.9	5	14	270	0.00	29.693 
19:00	37.9	34.9	37.9	82	32.9	4	11	248	0.00	29.693 
19:05	37.9	34.0	37.9	82	32.9	5	11	248	0.00	29.693 
19:10	37.9	34.9	37.9	82	32.9	4	12	248	0.00	29.693 
19:15	37.9	34.0	37.9	81	32.6	5	16	270	0.00	29.693 
19:20	37.9	34.9	37.9	82	32.9	4	10	270	0.00	29.693 
19:25	37.9	34.9	37.9	81	32.6	4	14	270	0.00	29.693 
19:30	37.9	34.0	37.9	81	32.6	5	10	270	0.00	29.693 
19:35	37.9	34.0	37.9	81	32.6	5	12	270	0.00	29.693 
19:40	37.8	34.8	37.8	81	32.5	4	11	270	0.00	29.694 
19:45	37.9	37.9	37.9	81	32.6	3	7	270	0.00	29.695 
19:50	37.9	34.0	37.9	81	32.6	5	12	248	0.00	29.695 
19:55	37.8	34.8	37.8	81	32.5	4	9	248	0.00	29.696 
20:00	37.8	34.8	37.8	81	32.5	4	12	270	0.00	29.697 
20:05	37.8	33.1	37.8	82	32.8	6	17	270	0.00	29.698 
20:10	37.6	33.7	37.6	82	32.6	5	10	270	0.00	29.697 
20:15	37.6	37.6	37.6	82	32.6	3	9	248	0.00	29.699 
20:20	37.6	37.6	37.6	82	32.6	3	7	248	0.00	29.701 
20:25	37.6	34.5	37.6	82	32.6	4	9	248	0.00	29.702 
20:30	37.6	34.5	37.6	82	32.6	4	12	270	0.00	29.703 
20:35	37.6	34.5	37.6	82	32.6	4	10	270	0.00	29.705 
20:40	37.6	34.5	37.6	83	32.9	4	11	270	0.00	29.707 
20:45	37.6	34.5	37.6	83	32.9	4	7	270	0.00	29.707 
20:50	37.6	34.5	37.6	84	33.2	4	11	248	0.00	29.710 
20:55	37.5	37.5	37.5	84	33.1	3	9	248	0.00	29.710 
21:00	37.5	37.5	37.5	85	33.4	3	10	270	0.00	29.710 
21:05	37.3	34.2	37.3	85	33.2	4	9	248	0.00	29.711 
21:10	37.2	37.2	37.2	85	33.1	3	7	270	0.00	29.710 
21:15	37.2	37.2	37.2	85	33.1	3	6	270	0.00	29.709 
21:20	37.2	34.1	37.2	85	33.1	4	10	270	0.00	29.710 
21:25	37.3	34.2	37.3	84	32.9	4	9	248	0.00	29.711 
21:30	37.3	37.3	37.3	84	32.9	3	9	248	0.00	29.710 
21:35	37.3	37.3	37.3	84	32.9	3	7	248	0.00	29.711 
21:40	37.3	37.3	37.3	84	32.9	3	7	248	0.00	29.712 
21:45	37.3	34.2	37.3	83	32.6	4	14	248	0.00	29.712 
21:50	37.5	37.5	37.5	83	32.8	3	9	248	0.00	29.715 
21:55	37.5	37.5	37.5	82	32.5	2	6	248	0.00	29.717 
22:00	37.5	34.4	37.5	82	32.5	4	11	270	0.00	29.719 
22:05	37.5	37.5	37.5	82	32.5	3	7	270	0.00	29.720 
22:10	37.6	34.5	37.6	82	32.6	4	10	248	0.00	29.718 
22:15	37.5	37.5	37.5	82	32.5	3	7	270	0.00	29.717 
22:20	37.3	34.2	37.3	83	32.6	4	12	248	0.00	29.718 
22:25	37.3	33.3	37.3	84	32.9	5	13	248	0.00	29.717 
22:30	37.2	37.2	37.2	84	32.8	3	7	270	0.00	29.714 
22:35	37.2	37.2	37.2	84	32.8	3	7	248	0.00	29.714 
22:40	37.0	37.0	37.0	84	32.6	3	6	248	0.00	29.713 
22:45	37.0	33.9	37.0	85	32.9	4	10	248	0.00	29.712 
22:50	36.9	33.7	36.9	85	32.8	4	12	248	0.00	29.712 
22:55	36.8	33.6	36.8	86	33.0	4	9	248	0.00	29.711 
23:00	36.8	36.8	36.8	86	33.0	3	10	270	0.00	29.710 
23:05	36.8	33.6	36.8	86	33.0	4	12	248	0.00	29.708 
23:10	36.8	33.6	36.8	87	33.3	4	10	248	0.00	29.711 
23:15	36.8	33.6	36.8	86	33.0	4	10	248	0.00	29.712 
23:20	36.8	33.6	36.8	86	33.0	4	9	270	0.00	29.713 
23:25	36.8	36.8	36.8	86	33.0	3	7	248	0.00	29.714 
23:30	36.8	33.6	36.8	85	32.7	4	7	270	0.00	29.712 
23:35	36.9	36.9	36.9	85	32.8	3	9	248	0.00	29.713 
23:40	36.8	32.7	36.8	84	32.4	5	13	248	0.00	29.712 
23:45	36.8	33.6	36.8	84	32.4	4	7	248	0.00	29.712 
23:50	36.9	33.7	36.9	84	32.5	4	9	248	0.00	29.712 
23:55	36.9	36.9	36.9	84	32.5	3	6	248	0.00	29.713 

CoCoRaHS
IN-AL-39
A2 Web Hosting
Creative Commons License
GoDaddy
Look for:

loaded 2017-10-17 00:34:34 • last modified 2010-11-18 10:43:29
Privacy PolicyDisclaimer
• wx.awcolley.com is powered by PmWiki v.2002016 •
• all content (unless otherwise noted) © 2017 A W Colley